Time;durP1;ratioP1;P1;durP2;ratioP2;P2;SDS_P1;SDS_P2;PMS_P1;PMS_P2;Temp;Humidity;BMP_temperature;BMP_pressure;BME280_temperature;BME280_humidity;BME280_pressure;Samples;Min_cycle;Max_cycle;Signal;HPM_P1;HPM_P2
2022/04/17 00:02:11;;;;;;;42.90;30.00;;;;;;;2.20;86.01;100115.86;105175;1270;75756;-74
2022/04/17 00:04:37;;;;;;;46.60;28.50;;;;;;;2.17;85.90;100117.30;105171;1270;61266;-74
2022/04/17 00:07:04;;;;;;;41.60;28.30;;;;;;;2.13;86.03;100112.98;105087;1271;73253;-74
2022/04/17 00:09:30;;;;;;;38.30;27.20;;;;;;;2.09;86.03;100115.50;105151;1270;61323;-75
2022/04/17 00:11:57;;;;;;;46.80;27.50;;;;;;;2.05;86.54;100117.99;105153;1270;61247;-76
2022/04/17 00:14:23;;;;;;;47.30;28.10;;;;;;;2.03;86.86;100112.60;105132;1270;75732;-74
2022/04/17 00:16:50;;;;;;;42.30;26.30;;;;;;;2.01;87.03;100121.05;105138;1269;61262;-75
2022/04/17 00:19:17;;;;;;;39.40;25.90;;;;;;;1.96;86.87;100117.98;105146;1271;72884;-75
2022/04/17 00:21:43;;;;;;;40.20;25.60;;;;;;;1.91;87.11;100120.13;105144;1270;61313;-75
2022/04/17 00:24:10;;;;;;;38.50;25.80;;;;;;;1.88;87.40;100123.14;105154;1271;61298;-75
2022/04/17 00:26:37;;;;;;;39.20;24.20;;;;;;;1.85;87.94;100122.84;105190;1270;61272;-74
2022/04/17 00:29:03;;;;;;;36.60;24.00;;;;;;;1.83;88.38;100121.64;105174;1270;69860;-75
2022/04/17 00:31:30;;;;;;;36.90;24.30;;;;;;;1.82;88.90;100120.95;105213;1271;74141;-75
2022/04/17 00:33:56;;;;;;;38.20;24.10;;;;;;;1.80;88.89;100119.75;105199;1270;61183;-74
2022/04/17 00:36:23;;;;;;;37.70;25.00;;;;;;;1.75;89.33;100120.16;105107;1271;61255;-75
2022/04/17 00:38:49;;;;;;;37.50;25.40;;;;;;;1.71;89.27;100118.45;105188;1271;61308;-74
2022/04/17 00:41:16;;;;;;;42.80;25.70;;;;;;;1.67;89.53;100119.22;105163;1271;61380;-74
2022/04/17 00:43:45;;;;;;;40.80;27.60;;;;;;;1.62;90.12;100117.16;105288;1271;61362;-75
2022/04/17 00:46:13;;;;;;;36.10;26.60;;;;;;;1.61;90.75;100112.98;105356;1271;61378;-74
2022/04/17 00:48:40;;;;;;;41.70;27.60;;;;;;;1.58;90.67;100115.82;105497;1271;61242;-74
2022/04/17 00:51:08;;;;;;;42.00;27.90;;;;;;;1.54;90.78;100111.66;105643;1271;76347;-74
2022/04/17 00:53:36;;;;;;;37.60;26.60;;;;;;;1.50;90.83;100116.96;106637;1271;70320;-74
2022/04/17 00:56:03;;;;;;;38.80;25.30;;;;;;;1.46;91.22;100112.11;106417;1270;74171;-75
2022/04/17 00:58:32;;;;;;;41.50;27.40;;;;;;;1.43;91.88;100114.77;106908;1270;61270;-76
2022/04/17 01:00:59;;;;;;;38.20;26.20;;;;;;;1.42;92.11;100116.02;108323;1271;60890;-75
2022/04/17 01:03:28;;;;;;;37.50;27.20;;;;;;;1.40;92.27;100114.65;108546;1270;74365;-75
2022/04/17 01:05:55;;;;;;;43.60;27.70;;;;;;;1.37;92.13;100113.63;108552;1270;68168;-75
2022/04/17 01:08:21;;;;;;;39.30;27.20;;;;;;;1.35;92.58;100111.02;108312;1270;73519;-75
2022/04/17 01:10:48;;;;;;;41.60;27.50;;;;;;;1.34;92.99;100105.42;106237;1270;61301;-75
2022/04/17 01:13:17;;;;;;;34.50;25.30;;;;;;;1.33;92.57;100102.46;105247;1271;61830;-76
2022/04/17 01:15:44;;;;;;;39.70;28.00;;;;;;;1.30;92.71;100102.14;105378;1271;75107;-76
2022/04/17 01:18:11;;;;;;;39.70;27.80;;;;;;;1.27;92.49;100099.90;105269;1271;67531;-75
2022/04/17 01:20:38;;;;;;;44.50;30.30;;;;;;;1.24;92.61;100095.20;105216;1271;74675;-75
2022/04/17 01:28:35;;;;;;;41.40;30.90;;;;;;;1.09;94.80;100088.72;105121;1271;75281;-75
2022/04/17 01:31:02;;;;;;;40.40;28.40;;;;;;;1.06;94.52;100089.98;105109;1270;68041;-74
2022/04/17 01:33:30;;;;;;;44.40;28.20;;;;;;;1.02;94.38;100087.23;104392;1271;1003655;-75
2022/04/17 01:35:57;;;;;;;40.90;27.90;;;;;;;1.00;94.69;100084.80;105221;1270;61353;-74
2022/04/17 01:38:23;;;;;;;41.10;27.70;;;;;;;0.99;95.46;100091.81;105149;1270;61349;-74
2022/04/17 01:40:50;;;;;;;44.10;28.90;;;;;;;0.97;95.03;100086.91;105151;1271;61543;-75
2022/04/17 01:43:16;;;;;;;45.70;28.20;;;;;;;0.94;94.71;100086.09;105104;1270;61255;-74
2022/04/17 01:45:42;;;;;;;38.90;26.70;;;;;;;0.90;94.64;100080.70;105115;1271;61405;-75
2022/04/17 01:48:09;;;;;;;41.20;27.50;;;;;;;0.86;94.87;100080.06;105091;1271;61352;-74
2022/04/17 01:50:36;;;;;;;47.00;32.70;;;;;;;0.83;95.07;100083.73;105113;1271;61263;-74
2022/04/17 01:53:03;;;;;;;44.60;31.10;;;;;;;0.80;95.07;100089.38;105159;1270;75817;-74
2022/04/17 01:55:30;;;;;;;46.80;29.60;;;;;;;0.77;94.85;100089.23;105228;1270;69642;-74
2022/04/17 01:57:57;;;;;;;42.30;27.80;;;;;;;0.73;94.59;100085.77;105115;1271;73175;-75
2022/04/17 02:00:32;;;;;;;42.80;27.20;;;;;;;0.66;94.58;100087.23;105171;1271;61302;-75
2022/04/17 02:02:59;;;;;;;41.60;27.10;;;;;;;0.58;94.62;100088.86;105172;1270;61268;-74
2022/04/17 02:05:25;;;;;;;43.20;27.80;;;;;;;0.47;94.89;100095.27;105164;1270;61275;-75
2022/04/17 02:07:52;;;;;;;46.90;29.00;;;;;;;0.37;94.95;100094.12;105088;1271;61321;-73
2022/04/17 02:10:19;;;;;;;41.10;29.00;;;;;;;0.26;95.14;100090.52;105149;1269;61409;-75
2022/04/17 02:12:47;;;;;;;44.00;29.30;;;;;;;0.18;95.50;100088.31;105098;1271;61394;-75
2022/04/17 02:15:14;;;;;;;44.30;28.90;;;;;;;0.12;95.77;100091.69;105138;1270;61271;-75
2022/04/17 02:17:41;;;;;;;41.00;28.10;;;;;;;0.06;96.06;100089.80;105173;1270;76293;-75
2022/04/17 02:20:11;;;;;;;47.10;32.80;;;;;;;-0.01;96.30;100087.56;105148;1270;70958;-75
2022/04/17 02:22:38;;;;;;;45.50;31.00;;;;;;;-0.07;96.49;100091.81;105148;1270;74545;-74
2022/04/17 02:25:04;;;;;;;48.70;30.70;;;;;;;-0.15;96.62;100093.08;105102;1270;61324;-76
2022/04/17 02:27:32;;;;;;;45.50;30.30;;;;;;;-0.23;96.85;100092.59;105036;1271;61451;-74
2022/04/17 02:29:59;;;;;;;41.60;28.90;;;;;;;-0.30;97.04;100088.44;105061;1270;74114;-75
2022/04/17 02:32:26;;;;;;;40.90;28.40;;;;;;;-0.35;97.25;100091.27;105145;1270;69140;-75
2022/04/17 02:34:52;;;;;;;40.20;26.40;;;;;;;-0.40;97.45;100090.23;104365;1270;1003818;-75
2022/04/17 02:37:20;;;;;;;39.70;28.10;;;;;;;-0.45;97.72;100088.16;105074;1271;61356;-74
2022/04/17 02:39:48;;;;;;;42.90;27.80;;;;;;;-0.50;98.07;100090.10;105183;1270;61243;-74
2022/04/17 02:42:14;;;;;;;37.50;27.00;;;;;;;-0.54;98.56;100089.07;105060;1271;74901;-74
2022/04/17 02:44:41;;;;;;;37.80;26.50;;;;;;;-0.58;98.83;100083.50;105177;1270;69118;-75
2022/04/17 02:49:53;;;;;;;41.60;30.90;;;;;;;-0.64;99.65;100086.34;105311;1271;61349;-75
2022/04/17 02:52:20;;;;;;;49.60;33.20;;;;;;;-0.66;99.54;100086.50;105142;1271;61176;-75
2022/04/17 02:54:47;;;;;;;43.70;31.60;;;;;;;-0.68;99.69;100086.16;104979;1271;74886;-75
2022/04/17 02:57:13;;;;;;;40.50;27.00;;;;;;;-0.71;99.83;100084.27;105207;1270;70285;-76
2022/04/17 02:59:40;;;;;;;40.70;28.70;;;;;;;-0.74;99.91;100086.54;105192;1270;61380;-75
2022/04/17 03:07:37;;;;;;;40.00;29.10;;;;;;;-0.87;100.00;100086.05;105206;1271;75820;-76
2022/04/17 03:10:04;;;;;;;40.70;29.80;;;;;;;-0.91;100.00;100084.67;105201;1271;61172;-76
2022/04/17 03:12:31;;;;;;;48.20;30.90;;;;;;;-0.95;100.00;100084.34;105056;1271;72597;-76
2022/04/17 03:14:57;;;;;;;40.90;29.60;;;;;;;-0.96;100.00;100090.79;105180;1271;61314;-75
2022/04/17 03:17:24;;;;;;;49.20;31.00;;;;;;;-0.97;100.00;100088.52;105213;1271;61227;-76
2022/04/17 03:19:52;;;;;;;45.70;31.20;;;;;;;-0.98;100.00;100089.23;105036;1271;73784;-74
2022/04/17 03:22:23;;;;;;;43.40;29.60;;;;;;;-0.99;100.00;100088.36;105407;1273;69206;-74
2022/04/17 03:24:50;;;;;;;40.20;30.10;;;;;;;-1.01;100.00;100090.98;105210;1273;74071;-73
2022/04/17 03:27:17;;;;;;;42.20;29.40;;;;;;;-1.03;100.00;100090.63;105055;1273;61308;-76
2022/04/17 03:29:43;;;;;;;45.70;31.60;;;;;;;-1.04;100.00;100092.02;105045;1273;61753;-76
2022/04/17 03:32:10;;;;;;;44.90;32.10;;;;;;;-1.06;100.00;100092.73;105088;1273;76458;-74
2022/04/17 03:34:37;;;;;;;48.70;33.10;;;;;;;-1.07;100.00;100092.91;105065;1273;69318;-76
2022/04/17 03:37:04;;;;;;;44.50;32.90;;;;;;;-1.07;100.00;100094.84;105005;1273;73172;-75
2022/04/17 03:39:31;;;;;;;45.60;33.90;;;;;;;-1.07;100.00;100098.48;105078;1273;61291;-75
2022/04/17 03:41:58;;;;;;;47.20;35.30;;;;;;;-1.08;100.00;100097.60;105098;1273;61666;-74
2022/04/17 03:44:24;;;;;;;48.10;33.90;;;;;;;-1.07;100.00;100099.89;105044;1273;75469;-74
2022/04/17 03:46:51;;;;;;;47.60;31.70;;;;;;;-1.02;100.00;100102.66;104920;1274;61270;-75
2022/04/17 03:49:18;;;;;;;44.70;33.30;;;;;;;-0.96;100.00;100102.64;105072;1273;73151;-74
2022/04/17 03:51:44;;;;;;;47.90;34.90;;;;;;;-0.94;100.00;100098.82;105060;1274;61267;-75
2022/04/17 03:54:11;;;;;;;53.20;34.90;;;;;;;-0.95;100.00;100097.95;104953;1273;61338;-76
2022/04/17 03:56:37;;;;;;;49.20;34.20;;;;;;;-0.95;100.00;100098.45;105055;1273;61385;-74
2022/04/17 03:59:04;;;;;;;50.90;33.90;;;;;;;-0.96;100.00;100102.48;104962;1273;70413;-75
2022/04/17 04:01:30;;;;;;;46.90;33.10;;;;;;;-0.96;100.00;100101.08;105065;1273;73759;-74
2022/04/17 04:03:57;;;;;;;47.20;31.40;;;;;;;-0.96;100.00;100101.78;105076;1273;61273;-75
2022/04/17 04:06:23;;;;;;;49.60;36.00;;;;;;;-0.94;100.00;100102.48;105033;1273;61285;-75
2022/04/17 04:08:50;;;;;;;43.20;31.70;;;;;;;-0.75;100.00;100099.80;105043;1273;61333;-75
2022/04/17 04:11:20;;;;;;;41.00;30.70;;;;;;;-0.16;100.00;100097.42;105064;1273;61368;-75
2022/04/17 04:13:46;;;;;;;;;;;;;;;0.46;100.00;100092.29;105066;1273;73265;-75
2022/04/17 04:16:14;;;;;;;39.80;29.30;;;;;;;1.01;100.00;100092.13;104964;1273;61320;-74
2022/04/17 04:18:41;;;;;;;40.40;27.90;;;;;;;1.47;99.55;100092.15;104968;1273;61269;-75
2022/04/17 04:21:07;;;;;;;39.50;27.10;;;;;;;1.87;98.07;100090.73;105064;1272;75142;-75
2022/04/17 04:23:35;;;;;;;39.70;26.80;;;;;;;2.31;96.71;100087.11;105084;1273;69786;-75
2022/04/17 04:26:03;;;;;;;32.10;25.90;;;;;;;2.76;95.16;100088.30;105157;1273;73449;-75
2022/04/17 04:28:36;;;;;;;31.90;25.20;;;;;;;3.21;93.70;100084.30;105045;1273;61189;-76
2022/04/17 04:31:09;;;;;;;36.00;24.70;;;;;;;3.67;92.14;100082.67;105051;1273;62017;-77
2022/04/17 04:33:38;;;;;;;35.30;25.30;;;;;;;4.10;90.69;100079.58;105055;1272;75503;-75
2022/04/17 04:36:07;;;;;;;30.90;26.30;;;;;;;4.54;89.47;100075.39;105031;1273;68878;-75
2022/04/17 04:38:34;;;;;;;33.50;25.70;;;;;;;4.99;88.23;100076.87;105018;1273;74362;-76
2022/04/17 04:41:00;;;;;;;30.10;24.50;;;;;;;5.43;87.06;100071.40;105051;1274;61355;-76
2022/04/17 04:43:27;;;;;;;32.80;24.70;;;;;;;5.85;85.70;100066.66;105076;1274;61301;-75
2022/04/17 04:46:12;;;;;;;33.30;25.00;;;;;;;6.18;84.44;100069.02;104984;1273;76095;-75
2022/04/17 04:51:26;;;;;;;34.50;25.80;;;;;;;6.74;82.61;100070.55;105027;1273;73753;-75
2022/04/17 04:53:55;;;;;;;30.90;25.60;;;;;;;6.98;81.59;100067.05;105037;1273;61266;-75
2022/04/17 04:56:22;;;;;;;28.00;22.40;;;;;;;7.25;80.60;100071.58;105151;1273;61277;-76
2022/04/17 04:58:49;;;;;;;29.80;23.70;;;;;;;7.52;79.42;100070.42;105088;1273;73365;-75
2022/04/17 05:01:16;;;;;;;31.00;22.50;;;;;;;7.78;78.75;100063.77;105126;1274;69412;-75
2022/04/17 05:03:42;;;;;;;28.10;21.80;;;;;;;8.12;77.42;100061.20;105024;1273;73451;-75
2022/04/17 05:06:09;;;;;;;27.70;20.50;;;;;;;8.29;76.19;100066.73;105044;1273;61295;-75
2022/04/17 05:08:36;;;;;;;22.60;16.70;;;;;;;8.38;74.63;100066.20;104960;1274;61399;-76
2022/04/17 05:11:03;;;;;;;26.30;18.00;;;;;;;8.32;73.50;100067.67;105050;1274;76104;-75
2022/04/17 05:13:30;;;;;;;23.50;16.50;;;;;;;8.46;73.35;100066.25;104942;1273;68768;-76
2022/04/17 05:15:57;;;;;;;21.60;16.50;;;;;;;8.64;72.89;100068.89;105043;1274;73686;-75
2022/04/17 05:18:23;;;;;;;23.40;17.10;;;;;;;8.39;71.93;100066.86;105038;1273;61173;-75
2022/04/17 05:20:51;;;;;;;20.30;15.50;;;;;;;8.37;72.42;100064.81;105063;1273;61411;-74
2022/04/17 05:23:19;;;;;;;21.80;16.80;;;;;;;8.69;71.28;100068.67;105066;1274;74077;-75
2022/04/17 05:25:47;;;;;;;20.30;15.30;;;;;;;8.92;71.47;100073.36;105056;1273;68652;-75
2022/04/17 05:28:15;;;;;;;21.70;15.90;;;;;;;8.84;71.82;100074.77;105093;1273;72542;-75
2022/04/17 05:30:42;;;;;;;20.80;14.50;;;;;;;8.38;71.99;100078.59;104923;1275;61449;-74
2022/04/17 05:33:09;;;;;;;21.60;15.10;;;;;;;7.84;71.84;100082.47;105041;1274;61299;-76
2022/04/17 05:35:35;;;;;;;20.20;14.20;;;;;;;7.40;71.70;100088.02;105056;1274;76231;-75
2022/04/17 05:38:03;;;;;;;18.40;14.70;;;;;;;6.86;72.04;100094.15;105056;1273;69816;-76
2022/04/17 05:40:35;;;;;;;18.50;14.00;;;;;;;6.55;73.22;100089.17;105369;1273;74871;-74
2022/04/17 05:43:02;;;;;;;23.70;16.00;;;;;;;6.39;72.90;100089.86;105101;1273;61330;-75
2022/04/17 05:45:29;;;;;;;19.80;15.00;;;;;;;6.11;73.29;100088.84;104980;1274;61158;-75
2022/04/17 05:47:56;;;;;;;19.90;15.90;;;;;;;5.97;73.94;100087.48;105063;1274;76372;-76
2022/04/17 05:50:23;;;;;;;23.10;15.90;;;;;;;5.95;74.00;100092.30;105074;1274;69655;-75
2022/04/17 05:52:51;;;;;;;24.00;17.10;;;;;;;5.86;73.73;100088.15;105006;1273;61252;-75
2022/04/17 05:55:18;;;;;;;26.20;16.60;;;;;;;5.75;73.33;100090.59;105092;1274;61291;-76
2022/04/17 05:57:44;;;;;;;23.80;15.30;;;;;;;5.62;72.87;100086.02;105069;1274;61301;-75
2022/04/17 06:00:12;;;;;;;25.00;15.70;;;;;;;5.60;72.91;100086.80;104931;1274;61393;-76
2022/04/17 06:02:38;;;;;;;20.60;14.60;;;;;;;5.55;72.57;100083.77;105147;1273;69641;-76
2022/04/17 06:05:06;;;;;;;20.40;14.20;;;;;;;5.47;72.70;100088.55;105054;1273;73462;-79
2022/04/17 06:07:33;;;;;;;20.60;14.80;;;;;;;5.45;72.86;100093.91;105215;1274;61329;-75
2022/04/17 06:10:02;;;;;;;18.70;13.90;;;;;;;5.53;73.23;100091.75;105077;1273;61309;-77
2022/04/17 06:12:29;;;;;;;19.60;14.90;;;;;;;5.71;73.11;100092.64;105126;1274;73581;-75
2022/04/17 06:14:55;;;;;;;20.80;14.90;;;;;;;5.92;72.94;100084.45;105103;1274;70181;-77
2022/04/17 06:17:22;;;;;;;21.40;14.40;;;;;;;6.24;73.15;100082.78;105044;1273;61370;-75
2022/04/17 06:19:48;;;;;;;17.90;12.80;;;;;;;6.65;72.78;100087.26;105046;1274;61269;-76
2022/04/17 06:22:15;;;;;;;19.10;13.30;;;;;;;6.75;71.58;100086.91;105063;1273;61314;-76
2022/04/17 06:24:42;;;;;;;17.30;12.60;;;;;;;6.73;71.13;100089.99;105174;1272;75291;-75
2022/04/17 06:27:09;;;;;;;16.70;12.80;;;;;;;6.73;70.73;100086.81;105290;1274;61442;-75
2022/04/17 06:29:35;;;;;;;17.20;12.80;;;;;;;6.93;71.28;100090.18;105221;1274;61209;-77
2022/04/17 06:32:03;;;;;;;19.20;13.00;;;;;;;6.91;70.47;100092.77;105287;1273;61183;-75
2022/04/17 06:34:29;;;;;;;19.80;14.20;;;;;;;6.97;70.26;100092.18;105273;1272;61244;-77
2022/04/17 06:36:56;;;;;;;19.10;13.20;;;;;;;7.37;69.95;100089.17;105100;1274;61401;-77
2022/04/17 06:39:22;;;;;;;20.50;13.30;;;;;;;7.80;69.99;100082.30;105053;1273;61286;-79
2022/04/17 06:41:49;;;;;;;18.10;13.60;;;;;;;8.13;69.56;100078.52;105054;1274;61317;-75
2022/04/17 06:44:16;;;;;;;16.90;13.00;;;;;;;8.35;69.04;100078.55;105036;1273;61294;-77
2022/04/17 06:46:42;;;;;;;21.40;13.30;;;;;;;8.37;68.49;100074.91;105032;1273;62122;-77
2022/04/17 06:49:09;;;;;;;16.70;12.80;;;;;;;8.31;68.90;100074.62;104913;1273;61403;-79
2022/04/17 06:51:35;;;;;;;13.80;11.30;;;;;;;8.15;69.10;100075.06;105087;1273;69894;-77
2022/04/17 06:54:04;;;;;;;15.10;10.90;;;;;;;7.97;68.50;100074.55;105062;1273;71524;-77
2022/04/17 06:56:34;;;;;;;16.20;11.40;;;;;;;7.84;68.49;100076.12;105020;1273;61310;-77
2022/04/17 06:59:05;;;;;;;13.50;9.70;;;;;;;7.82;69.13;100074.75;105039;1273;61278;-77
2022/04/17 07:01:32;;;;;;;11.10;9.40;;;;;;;7.95;68.26;100074.28;105068;1274;75099;-74
2022/04/17 07:03:59;;;;;;;14.80;10.10;;;;;;;7.97;67.50;100073.86;105121;1273;69183;-77
2022/04/17 07:06:25;;;;;;;10.80;9.30;;;;;;;8.00;66.52;100073.21;105048;1271;61239;-75
2022/04/17 07:08:52;;;;;;;14.80;10.40;;;;;;;7.94;66.43;100068.15;105059;1273;61385;-76
2022/04/17 07:11:22;;;;;;;12.00;9.80;;;;;;;7.94;66.16;100067.94;105087;1273;61253;-76
2022/04/17 07:13:48;;;;;;;16.10;9.20;;;;;;;8.01;66.01;100067.51;105033;1274;76548;-76
2022/04/17 07:16:15;;;;;;;9.90;8.30;;;;;;;8.05;65.77;100071.58;105033;1274;70536;-76
2022/04/17 07:18:42;;;;;;;10.00;7.40;;;;;;;8.12;64.88;100070.59;105077;1273;62787;-76
2022/04/17 07:21:09;;;;;;;11.30;8.00;;;;;;;8.11;64.55;100067.09;105084;1273;61345;-75
2022/04/17 07:23:35;;;;;;;10.20;7.30;;;;;;;7.99;63.55;100068.27;105116;1274;61240;-76
2022/04/17 07:26:02;;;;;;;10.00;6.80;;;;;;;7.80;63.57;100066.16;105104;1274;61375;-77
2022/04/17 07:28:29;;;;;;;9.30;7.00;;;;;;;7.65;63.46;100068.86;105074;1274;68023;-76
2022/04/17 07:30:55;;;;;;;7.60;6.10;;;;;;;7.46;63.36;100069.94;105115;1274;74084;-77
2022/04/17 07:33:22;;;;;;;10.00;7.30;;;;;;;7.25;62.62;100071.05;104935;1274;61454;-75
2022/04/17 07:35:49;;;;;;;9.90;6.30;;;;;;;7.11;63.18;100071.20;105141;1274;61399;-74
2022/04/17 07:38:15;;;;;;;9.10;5.90;;;;;;;7.04;63.02;100075.14;105075;1274;61269;-75
2022/04/17 07:40:44;;;;;;;6.70;4.70;;;;;;;7.03;62.75;100073.23;105014;1274;61368;-78
2022/04/17 07:43:11;;;;;;;5.70;4.70;;;;;;;7.06;60.97;100067.67;105139;1274;73248;-76
2022/04/17 07:45:37;;;;;;;7.90;4.80;;;;;;;7.14;61.27;100065.26;105175;1274;61481;-78
2022/04/17 07:48:04;;;;;;;5.50;3.50;;;;;;;7.38;58.53;100060.85;105230;1274;62056;-75
2022/04/17 07:50:31;;;;;;;3.60;3.20;;;;;;;7.49;58.24;100057.29;105097;1275;75293;-75
2022/04/17 07:52:59;;;;;;;5.60;4.00;;;;;;;7.79;59.42;100052.77;105350;1271;70798;-76
2022/04/17 07:55:27;;;;;;;3.30;2.70;;;;;;;8.14;55.44;100049.98;105588;1271;73113;-77
2022/04/17 08:00:24;;;;;;;5.10;3.80;;;;;;;8.53;52.60;100042.93;105848;1271;61927;-76
2022/04/17 08:03:20;;;;;;;2.50;2.30;;;;;;;8.58;52.72;100042.02;106217;1271;75785;-76
2022/04/17 08:05:42;;;;;;;2.40;1.80;;;;;;;8.76;49.57;100051.52;108160;1271;68214;-74
2022/04/17 08:08:09;;;;;;;1.50;1.40;;;;;;;8.96;49.32;100041.64;108420;1271;73143;-76
2022/04/17 08:10:37;;;;;;;2.20;1.90;;;;;;;9.11;47.40;100034.09;108396;1271;61173;-76
2022/04/17 08:13:05;;;;;;;2.00;1.60;;;;;;;9.30;47.18;100031.25;108193;1271;59852;-77
2022/04/17 08:15:31;;;;;;;2.90;1.20;;;;;;;9.53;43.36;100032.69;107194;1271;74398;-77
2022/04/17 08:17:58;;;;;;;1.90;1.60;;;;;;;9.63;43.10;100025.14;105236;1271;69369;-74
2022/04/17 08:20:25;;;;;;;3.90;1.40;;;;;;;9.50;42.98;100024.66;105235;1271;61275;-76
2022/04/17 08:22:51;;;;;;;2.10;1.30;;;;;;;9.44;42.92;100029.41;105269;1271;61314;-77
2022/04/17 08:25:18;;;;;;;1.40;1.30;;;;;;;9.53;43.76;100028.80;105163;1271;61288;-75
2022/04/17 08:27:46;;;;;;;3.10;1.70;;;;;;;9.50;42.62;100027.35;105027;1272;73185;-76
2022/04/17 08:30:18;;;;;;;2.20;1.70;;;;;;;9.50;42.18;100024.50;105343;1271;70282;-78
2022/04/17 08:32:45;;;;;;;1.50;1.30;;;;;;;9.56;42.19;100023.37;105180;1271;73372;-75
2022/04/17 08:35:12;;;;;;;1.30;1.20;;;;;;;9.68;41.81;100028.98;105159;1271;61304;-75
2022/04/17 08:37:38;;;;;;;2.80;1.50;;;;;;;9.76;41.15;100020.09;105286;1271;61202;-77
2022/04/17 08:40:06;;;;;;;1.60;1.40;;;;;;;9.89;41.33;100020.92;105213;1271;75248;-77
2022/04/17 08:42:32;;;;;;;2.80;2.20;;;;;;;9.90;39.37;100024.59;105193;1271;68813;-76
2022/04/17 08:44:59;;;;;;;2.00;1.70;;;;;;;9.86;39.73;100024.09;105188;1271;61348;-75
2022/04/17 08:47:26;;;;;;;1.70;1.60;;;;;;;10.00;41.18;100018.98;105152;1271;61378;-77
2022/04/17 08:49:55;;;;;;;2.80;2.40;;;;;;;10.30;40.99;100018.41;105399;1271;61734;-76
2022/04/17 08:52:22;;;;;;;2.40;1.90;;;;;;;10.54;40.42;100014.90;105114;1274;74690;-76
2022/04/17 08:54:50;;;;;;;3.60;2.10;;;;;;;10.65;39.82;100012.24;105209;1271;70408;-77
2022/04/17 08:57:17;;;;;;;2.20;2.00;;;;;;;10.84;40.07;100010.19;105172;1271;72154;-76
2022/04/17 08:59:45;;;;;;;2.60;1.90;;;;;;;11.06;40.52;100005.66;105209;1271;61388;-76
2022/04/17 09:02:12;;;;;;;2.80;1.80;;;;;;;11.41;41.01;99997.77;105216;1271;61267;-73
2022/04/17 09:04:41;;;;;;;3.10;2.30;;;;;;;11.67;39.72;99991.02;105043;1271;75290;-76
2022/04/17 09:07:10;;;;;;;2.40;1.90;;;;;;;11.76;40.59;99984.96;105109;1271;69042;-76
2022/04/17 09:09:38;;;;;;;2.20;1.90;;;;;;;11.88;39.97;99984.69;105551;1271;73434;-77
2022/04/17 09:12:06;;;;;;;3.30;2.00;;;;;;;11.59;38.17;99981.63;105236;1271;61528;-76
2022/04/17 09:14:39;;;;;;;3.10;2.20;;;;;;;11.23;38.93;99987.84;105198;1271;61974;-78
2022/04/17 09:17:12;;;;;;;4.20;2.50;;;;;;;11.01;38.93;99983.50;105052;1271;76248;-76
2022/04/17 09:19:39;;;;;;;3.50;2.00;;;;;;;10.82;38.69;99983.43;105228;1271;69537;-75
2022/04/17 09:22:07;;;;;;;2.70;1.60;;;;;;;10.80;38.78;99978.59;105124;1271;72252;-75
2022/04/17 09:24:36;;;;;;;2.10;1.90;;;;;;;10.73;38.05;99979.09;105420;1271;61281;-77
2022/04/17 09:27:05;;;;;;;3.50;2.00;;;;;;;10.58;37.89;99976.84;105294;1271;61294;-75
2022/04/17 09:29:33;;;;;;;2.20;2.00;;;;;;;10.44;38.39;99976.52;105286;1271;76454;-75
2022/04/17 09:32:08;;;;;;;2.20;1.80;;;;;;;10.34;38.15;99975.77;105194;1271;69446;-73
2022/04/17 09:34:50;;;;;;;2.40;1.70;;;;;;;10.22;39.10;99974.56;105287;1271;73897;-75
2022/04/17 09:37:25;;;;;;;2.30;1.70;;;;;;;10.14;38.79;99970.86;105219;1271;61386;-75
2022/04/17 09:39:52;;;;;;;2.00;1.80;;;;;;;10.10;38.99;99968.73;105204;1271;61569;-74
2022/04/17 09:42:24;;;;;;;3.30;1.80;;;;;;;10.15;38.21;99965.47;105188;1271;76328;-76
2022/04/17 09:44:54;;;;;;;3.20;2.00;;;;;;;10.48;38.47;99961.03;105197;1271;70447;-75
2022/04/17 09:47:24;;;;;;;3.90;2.50;;;;;;;10.93;38.91;99951.05;105123;1271;73158;-76
2022/04/17 09:49:57;;;;;;;1.80;1.10;;;;;;;11.43;39.14;99946.20;105430;1271;61301;-76
2022/04/17 09:52:25;;;;;;;2.00;1.70;;;;;;;11.50;36.50;99937.10;105232;1270;61265;-76
2022/04/17 09:54:52;;;;;;;2.30;1.80;;;;;;;11.30;37.00;99938.40;105226;1270;76341;-75
2022/04/17 09:57:39;;;;;;;2.40;1.70;;;;;;;11.37;37.05;99937.80;105404;1271;69337;-75
2022/04/17 10:00:07;;;;;;;3.80;2.00;;;;;;;11.35;37.35;99934.94;105193;1271;73024;-76
2022/04/17 10:02:35;;;;;;;2.30;1.80;;;;;;;11.37;37.22;99941.72;105219;1271;61214;-76
2022/04/17 10:05:03;;;;;;;2.70;1.80;;;;;;;11.35;37.38;99937.02;105298;1271;61351;-75
2022/04/17 10:07:30;;;;;;;2.40;2.10;;;;;;;11.37;37.50;99934.27;105179;1271;74999;-75
2022/04/17 10:09:57;;;;;;;2.90;1.70;;;;;;;11.53;37.87;99930.55;105199;1271;69307;-74
2022/04/17 10:12:25;;;;;;;1.60;1.50;;;;;;;11.55;37.92;99930.23;105207;1271;61340;-76
2022/04/17 10:14:52;;;;;;;1.70;1.30;;;;;;;11.61;37.50;99927.95;105225;1270;61400;-74
2022/04/17 10:17:20;;;;;;;2.70;1.80;;;;;;;11.70;37.47;99922.08;105229;1271;61321;-74
2022/04/17 10:19:51;;;;;;;1.70;1.40;;;;;;;11.66;36.68;99922.13;105313;1271;76525;-75
2022/04/17 10:22:20;;;;;;;2.00;1.50;;;;;;;11.73;36.62;99917.11;105211;1270;70504;-75
2022/04/17 10:24:52;;;;;;;6.40;1.60;;;;;;;11.83;36.58;99910.27;105574;1270;73400;-76
2022/04/17 10:27:35;;;;;;;1.50;1.40;;;;;;;12.05;36.47;99910.34;105089;1271;61346;-74
2022/04/17 10:30:12;;;;;;;2.40;1.40;;;;;;;12.38;36.63;99913.15;105198;1271;61362;-74
2022/04/17 10:33:27;;;;;;;2.20;1.40;;;;;;;12.62;35.60;99905.17;105212;1271;75312;-75
2022/04/17 10:36:32;;;;;;;1.40;1.20;;;;;;;12.68;35.66;99906.05;104408;1281;68659;-73
2022/04/17 10:39:12;;;;;;;1.50;1.40;;;;;;;12.80;35.31;99903.86;103944;1285;74271;-75
2022/04/17 10:41:41;;;;;;;2.20;1.60;;;;;;;12.59;34.35;99900.37;103935;1285;61759;-75
2022/04/17 10:44:12;;;;;;;2.30;1.60;;;;;;;12.11;33.04;99896.80;104037;1285;61347;-75
2022/04/17 10:46:49;;;;;;;;;;;;;;;11.75;34.34;99897.22;104018;1285;74204;-75
2022/04/17 10:49:18;;;;;;;1.40;1.30;;;;;;;11.63;34.27;99896.68;104033;1285;69626;-74
2022/04/17 10:51:56;;;;;;;2.60;1.30;;;;;;;11.58;34.41;99891.58;104103;1285;74441;-74
2022/04/17 10:54:24;;;;;;;2.20;1.70;;;;;;;11.54;34.83;99888.85;104134;1285;61481;-75
2022/04/17 10:56:54;;;;;;;2.10;1.90;;;;;;;11.54;35.22;99887.92;104127;1286;61548;-75
2022/04/17 10:59:22;;;;;;;3.60;2.60;;;;;;;11.55;34.85;99886.09;103953;1285;76366;-76
2022/04/17 11:01:53;;;;;;;2.00;1.80;;;;;;;11.57;35.01;99884.05;103995;1285;70386;-77
2022/04/17 11:04:40;;;;;;;2.60;1.80;;;;;;;11.43;33.95;99883.92;103979;1285;73288;-78
2022/04/17 11:07:07;;;;;;;2.40;2.00;;;;;;;11.26;34.65;99882.94;104088;1285;61437;-75
2022/04/17 11:09:36;;;;;;;2.00;1.70;;;;;;;11.20;34.12;99880.20;103985;1285;61406;-76
2022/04/17 11:12:06;;;;;;;3.10;2.00;;;;;;;11.17;34.79;99872.39;104100;1281;76245;-75
2022/04/17 11:14:33;;;;;;;2.30;1.90;;;;;;;11.18;34.38;99873.25;104866;1271;69216;-75
2022/04/17 11:17:08;;;;;;;1.60;1.10;;;;;;;11.12;35.12;99868.77;105188;1271;72734;-74
2022/04/17 11:19:47;;;;;;;3.00;2.00;;;;;;;11.12;34.39;99867.52;105229;1271;61294;-74
2022/04/17 11:22:16;;;;;;;2.20;1.90;;;;;;;11.00;34.91;99866.92;105180;1271;61266;-75
2022/04/17 11:24:55;;;;;;;1.70;1.60;;;;;;;10.99;35.33;99864.31;105181;1271;76275;-75
2022/04/17 11:27:42;;;;;;;2.70;1.80;;;;;;;11.10;35.32;99860.14;105067;1271;66731;-75
2022/04/17 11:30:30;;;;;;;3.00;1.80;;;;;;;11.15;35.81;99854.34;105147;1271;74262;-75
2022/04/17 11:33:00;;;;;;;2.30;1.80;;;;;;;11.25;35.55;99850.77;105223;1270;61333;-75
2022/04/17 11:35:28;;;;;;;2.20;1.40;;;;;;;11.27;35.73;99850.52;105342;1270;61425;-76
2022/04/17 11:38:05;;;;;;;2.00;1.40;;;;;;;11.29;34.84;99847.90;105299;1271;76643;-74
2022/04/17 11:40:37;;;;;;;3.80;1.70;;;;;;;11.19;35.08;99839.02;105342;1271;68951;-75